createdAt,value
2016-08-17T00:03:26.339Z,1006.07
2016-08-17T00:18:18.119Z,1005.93
2016-08-17T00:33:20.608Z,1006.07
2016-08-17T00:48:18.129Z,1006
2016-08-17T01:03:18.129Z,1005.7
2016-08-17T01:18:23.169Z,1005.67
2016-08-17T01:33:23.211Z,1005.6
2016-08-17T01:48:23.176Z,1005.51
2016-08-17T02:03:34.277Z,1005.37
2016-08-17T02:18:22.749Z,1005.65
2016-08-17T02:33:27.723Z,1005.45
2016-08-17T02:48:22.772Z,1005.6
2016-08-17T03:03:27.820Z,1005.55
2016-08-17T03:18:37.254Z,1005.52
2016-08-17T03:33:26.214Z,1005.62
2016-08-17T03:48:24.949Z,1005.61
2016-08-17T04:03:22.838Z,1005.45
2016-08-17T04:18:24.510Z,1005.32
2016-08-17T04:33:18.207Z,1005.4
2016-08-17T04:48:18.211Z,1005.42
2016-08-17T05:03:18.248Z,1005.52
2016-08-17T05:18:18.211Z,1005.38
2016-08-17T05:33:20.711Z,1005.35
2016-08-17T05:48:29.826Z,1005.18
2016-08-17T06:03:34.784Z,1005.29
2016-08-17T06:18:40.439Z,1005.29
2016-08-17T06:33:22.806Z,1005.42
2016-08-17T06:48:23.160Z,1005.41
2016-08-17T07:18:19.924Z,1005.42
2016-08-17T07:33:21.579Z,1005.37
2016-08-17T07:48:22.841Z,1005.37
2016-08-17T08:03:18.246Z,1005.41
2016-08-17T08:18:18.250Z,1005.11
2016-08-17T08:33:18.283Z,1005.13
2016-08-17T08:48:33.319Z,1005.12
2016-08-17T09:03:23.328Z,1005.01
2016-08-17T09:18:24.968Z,1004.79
2016-08-17T09:48:22.906Z,1004.74
2016-08-17T10:03:26.592Z,1004.72
2016-08-17T10:18:34.004Z,1004.57
2016-08-17T10:33:18.279Z,1004.66
2016-08-17T10:48:18.279Z,1004.53
2016-08-17T11:03:23.371Z,1004.32
2016-08-17T11:18:18.295Z,1004.37
2016-08-17T11:33:22.307Z,1004.34
2016-08-17T11:48:22.522Z,1003.86
2016-08-17T12:03:23.419Z,1003.76
2016-08-17T12:18:18.323Z,1003.77
2016-08-17T12:33:18.321Z,1003.84
2016-08-17T12:48:18.330Z,1003.74
2016-08-17T13:03:18.329Z,1003.64
2016-08-17T13:18:18.371Z,1003.56
2016-08-17T13:33:20.436Z,1003.13
2016-08-17T13:48:23.358Z,1003.11
2016-08-17T14:03:23.385Z,1003.1
2016-08-17T14:18:24.588Z,1002.98
2016-08-17T14:33:20.838Z,1002.67
2016-08-17T14:48:24.955Z,1002.8
2016-08-17T15:03:18.345Z,1002.6
2016-08-17T15:18:18.353Z,1002.67
2016-08-17T15:33:18.416Z,1002.51
2016-08-17T15:48:18.360Z,1002.24
2016-08-17T16:03:18.375Z,1002.14
2016-08-17T16:18:32.699Z,1002.02
2016-08-17T16:33:25.050Z,1001.98
2016-08-17T16:48:26.499Z,1001.83
2016-08-17T17:03:22.986Z,1001.65
2016-08-17T17:18:20.401Z,1001.77
2016-08-17T17:33:18.399Z,1001.66
2016-08-17T18:03:18.447Z,1001.84
2016-08-17T18:18:20.413Z,1001.89
2016-08-17T18:33:19.246Z,1001.87
2016-08-17T18:48:20.413Z,1001.96
2016-08-17T19:03:23.098Z,1001.85
2016-08-17T19:18:19.247Z,1001.97
2016-08-17T19:33:23.008Z,1001.84
2016-08-17T19:48:23.040Z,1001.82
2016-08-17T20:03:18.445Z,1001.96
2016-08-17T20:18:18.487Z,1001.83
2016-08-17T20:33:18.442Z,1001.83
2016-08-17T20:48:18.450Z,1001.76
2016-08-17T21:03:18.449Z,1001.79
2016-08-17T21:18:23.074Z,1001.71
2016-08-17T21:33:20.459Z,1001.61
2016-08-17T21:48:30.685Z,1001.47
2016-08-17T22:03:18.455Z,1001.46
2016-08-17T22:18:31.494Z,1001.42
2016-08-17T22:33:24.562Z,1001.37
2016-08-17T22:48:24.558Z,1001.33
2016-08-17T23:18:29.539Z,1001.23
2016-08-17T23:33:23.553Z,1001.2
2016-08-17T23:48:18.456Z,1001.05
